Mertztown, Pennsylvania
Current Conditions -  °F | °C
As of 2:55 PM on Thursday 30 Oct 2014 (Local Time) from KXLL Reporting Station
Broken Clouds Broken Clouds  
Wind Chill: 55°   Ceiling: 5000
Heat Index: 55°   Visibility: 10mi
Dew Point: 34°   Wind: 7mph
Humidity: 44%   Direction: 290°WNW
Pressure: 30"   Gusts: NA
Location:  40.51°N, 75.67°W
Report Text: KXLL 301855Z AUTO 29006KT 10SM BKN050 13/01 A3000 RMK AO2
Loading
Personal Weather Stations






























Interactive Weather Map
Tropical Storm Tracking
New forecast layout! Learn more

10-Day Weather Forecast

Advertisements
Track Severe Weather on mobile